Yuma, AZ

3:34 PM MST on August 31, 2016 (GMT -0700)
APRSWXNET | | Change Station

Elev 125 ft 32.72 °N, 114.65 °W | Updated 25 minutes ago

Partly Cloudy
Partly Cloudy
105 °F
Feels Like 111 °F
N
8
Wind Variable Wind from SW
Gusts 12.0 mph

Today
High -- | Low -- °F
--% Chance of Precip.
Yesterday
High -- | Low -- °F
Precip. -- in
Pressure 29.72 in
Visibility 10.0 miles
Clouds Few 10000 ft
Heat Index 111 °F
Dew Point 66 °F
Humidity 29%
Rainfall in
Snow Depth Not available.
6:13 AM 7:03 PM
Waning Crescent, 0% visible
METAR KNYL 312157Z 21009KT 10SM FEW100 41/16 A2973 RMK AO2 SLP063 T04060161
Pressure 29.72 in
Visibility 10.0 miles
Clouds Few 10000 ft
Heat Index 111 °F
Dew Point 66 °F
Humidity 29%
Rainfall in
Snow Depth Not available.
6:13 AM 7:03 PM
Waning Crescent, 0% visible
METAR KNYL 312157Z 21009KT 10SM FEW100 41/16 A2973 RMK AO2 SLP063 T04060161

10-Day Weather Forecast

Almanac

Astronomy

Aug. 31, 2016 Rise Set
Actual Time
Civil Twilight
Nautical Twilight
Astronomical Twilight
Moon
Length of Visible Light
Length of Day
Tomorrow will be .
, % of the Moon is Illuminated

Today's Extremes

State Highs State Lows

Community

WunderPhotos

Upload Photos

1,936,203 photos uploaded!

WunderBlog® & News

Nearby

Air Quality

  Air Quality AQ Index Pollutant
Not available.

Snow Depth

Station Depth Elevation

Earthquake Activity

City Distance Mag. Time & Date
Minimum magnitude displayed is 2.5.

Coastal Water Temperatures

Place Temperature

Stations

Nearby Weather Stations

Station Location Temp. Windchill Dew Point Humidity Wind Precip. Elev Updated Type
                   

Watches & Warnings

There are currently no watches in effect.